createdAt,value
2023-03-11T00:09:37.241Z,2.12
2023-03-11T00:19:38.698Z,2.11
2023-03-11T00:29:40.251Z,2.06
2023-03-11T00:39:41.638Z,2.00
2023-03-11T00:49:43.156Z,2.01
2023-03-11T00:59:44.610Z,2.03
2023-03-11T01:09:46.078Z,2.07
2023-03-11T01:19:48.317Z,1.96
2023-03-11T01:29:49.771Z,1.87
2023-03-11T01:39:51.391Z,1.79
2023-03-11T01:49:53.029Z,1.73
2023-03-11T01:59:58.314Z,1.67
2023-03-11T02:09:59.855Z,1.66
2023-03-11T02:20:29.885Z,1.65
2023-03-11T02:30:34.630Z,1.61
2023-03-11T02:40:48.753Z,1.59
2023-03-11T02:50:50.950Z,1.47
2023-03-11T03:00:52.428Z,1.55
2023-03-11T03:10:53.823Z,1.43
2023-03-11T03:20:55.223Z,1.41
2023-03-11T03:30:56.798Z,1.31
2023-03-11T03:40:58.160Z,1.26
2023-03-11T03:51:08.871Z,1.21
2023-03-11T04:01:11.972Z,1.18
2023-03-11T04:11:14.099Z,1.12
2023-03-11T04:21:15.808Z,1.12
2023-03-11T04:31:17.263Z,1.00
2023-03-11T04:41:19.017Z,1.00
2023-03-11T04:51:20.546Z,0.95
2023-03-11T05:01:22.107Z,0.97
2023-03-11T05:11:23.550Z,0.93
2023-03-11T05:21:25.011Z,0.86
2023-03-11T05:31:26.499Z,0.88
2023-03-11T05:41:27.858Z,0.85
2023-03-11T05:51:29.485Z,0.80
2023-03-11T06:01:30.908Z,0.69
2023-03-11T06:11:32.409Z,0.76
2023-03-11T06:21:33.833Z,0.68
2023-03-11T06:31:37.161Z,0.70
2023-03-11T06:41:38.627Z,0.71
2023-03-11T06:51:40.093Z,0.72
2023-03-11T07:01:41.443Z,0.86
2023-03-11T07:11:42.956Z,0.99
2023-03-11T07:21:44.535Z,1.18
2023-03-11T07:31:46.125Z,1.31
2023-03-11T07:41:47.630Z,1.46
2023-03-11T07:51:49.154Z,1.58
2023-03-11T08:01:50.768Z,1.61
2023-03-11T08:11:52.354Z,1.59
2023-03-11T08:21:53.828Z,1.64
2023-03-11T08:31:55.304Z,1.73
2023-03-11T08:41:56.814Z,1.87
2023-03-11T08:51:58.303Z,1.94
2023-03-11T09:01:59.785Z,2.00
2023-03-11T09:12:01.272Z,2.12
2023-03-11T09:22:04.109Z,2.19
2023-03-11T09:32:05.672Z,2.23
2023-03-11T09:42:22.158Z,2.40
2023-03-11T09:52:36.012Z,2.54
2023-03-11T10:02:38.166Z,2.56
2023-03-11T10:13:00.975Z,2.90
2023-03-11T10:23:10.105Z,2.86
2023-03-11T10:33:28.196Z,3.13
2023-03-11T10:43:40.444Z,3.21
2023-03-11T10:53:48.195Z,3.31
2023-03-11T11:03:52.267Z,3.40
2023-03-11T11:13:58.175Z,3.64
2023-03-11T11:24:05.036Z,3.82
2023-03-11T11:34:32.574Z,3.92
2023-03-11T11:44:34.955Z,4.22
2023-03-11T11:54:39.133Z,4.30
2023-03-11T12:05:01.156Z,4.44
2023-03-11T12:15:14.430Z,4.48
2023-03-11T12:25:29.558Z,4.71
2023-03-11T12:35:34.427Z,4.57
2023-03-11T12:45:51.244Z,4.61
2023-03-11T12:56:30.941Z,4.83
2023-03-11T13:06:47.637Z,4.87
2023-03-11T13:16:49.793Z,4.99
2023-03-11T13:27:19.934Z,4.90
2023-03-11T13:37:45.008Z,4.87
2023-03-11T13:47:49.632Z,5.02
2023-03-11T13:57:55.986Z,5.07
2023-03-11T14:08:18.036Z,5.12
2023-03-11T14:18:40.069Z,5.08
2023-03-11T14:28:47.581Z,5.06
2023-03-11T14:38:49.190Z,5.08
2023-03-11T14:48:51.450Z,5.14
2023-03-11T14:59:19.900Z,5.09
2023-03-11T15:09:24.017Z,5.09
2023-03-11T15:19:28.345Z,5.07
2023-03-11T15:29:30.692Z,5.16
2023-03-11T15:39:32.277Z,5.04
2023-03-11T15:49:33.956Z,5.18
2023-03-11T15:59:36.738Z,5.09
2023-03-11T16:09:38.142Z,5.12
2023-03-11T16:19:40.696Z,5.21
2023-03-11T16:29:42.266Z,5.13
2023-03-11T16:39:43.724Z,5.15
2023-03-11T16:49:45.364Z,5.04
2023-03-11T16:59:46.797Z,5.07
2023-03-11T17:09:48.254Z,4.97
2023-03-11T17:19:49.850Z,4.90
2023-03-11T17:29:51.366Z,4.75
2023-03-11T17:39:53.091Z,4.57
2023-03-11T17:49:54.501Z,4.41
2023-03-11T17:59:55.923Z,4.21
2023-03-11T18:09:57.488Z,4.04
2023-03-11T18:20:00.535Z,3.83
2023-03-11T18:30:02.277Z,3.65
2023-03-11T18:40:05.849Z,3.45
2023-03-11T18:50:07.574Z,3.27
2023-03-11T19:00:09.654Z,3.22
2023-03-11T19:10:12.347Z,2.91
2023-03-11T19:20:13.836Z,2.69
2023-03-11T19:30:15.302Z,2.62
2023-03-11T19:40:17.891Z,2.48
2023-03-11T19:50:19.593Z,2.41
2023-03-11T20:00:21.594Z,2.17
2023-03-11T20:10:23.042Z,2.07
2023-03-11T20:20:24.471Z,2.11
2023-03-11T20:30:26.615Z,2.07
2023-03-11T20:40:28.423Z,2.04
2023-03-11T20:50:29.921Z,1.98
2023-03-11T21:00:31.413Z,1.96
2023-03-11T21:10:33.041Z,1.86
2023-03-11T21:20:34.598Z,1.79
2023-03-11T21:30:36.591Z,1.71
2023-03-11T21:40:38.095Z,1.59
2023-03-11T21:50:40.972Z,1.49
2023-03-11T22:00:43.369Z,1.49
2023-03-11T22:10:44.798Z,1.34
2023-03-11T22:20:46.454Z,1.29
2023-03-11T22:30:48.331Z,1.31
2023-03-11T22:40:49.816Z,1.28
2023-03-11T22:50:51.273Z,1.29
2023-03-11T23:00:52.606Z,1.29
2023-03-11T23:10:54.460Z,1.33
2023-03-11T23:20:56.138Z,1.37
2023-03-11T23:30:57.656Z,1.49
2023-03-11T23:40:59.280Z,1.64
2023-03-11T23:51:00.889Z,1.64
